sensor_id;sensor_type;location;lat;lon;timestamp;pressure;altitude;pressure_sealevel;temperature
47484;BMP280;54076;50.322;18.650;2023-03-01T00:00:15;99185.13;;;-6.77
47484;BMP280;54076;50.322;18.650;2023-03-01T00:05:16;99190.44;;;-6.76
47484;BMP280;54076;50.322;18.650;2023-03-01T00:10:17;99187.07;;;-6.70
47484;BMP280;54076;50.322;18.650;2023-03-01T00:15:19;99189.03;;;-6.71
47484;BMP280;54076;50.322;18.650;2023-03-01T00:20:20;99194.47;;;-6.62
47484;BMP280;54076;50.322;18.650;2023-03-01T00:25:21;99195.39;;;-6.44
47484;BMP280;54076;50.322;18.650;2023-03-01T00:30:22;99186.86;;;-6.61
47484;BMP280;54076;50.322;18.650;2023-03-01T00:35:23;99182.36;;;-6.67
47484;BMP280;54076;50.322;18.650;2023-03-01T00:40:29;99181.70;;;-6.69
47484;BMP280;54076;50.322;18.650;2023-03-01T00:45:30;99189.08;;;-6.58
47484;BMP280;54076;50.322;18.650;2023-03-01T00:50:32;99185.73;;;-6.51
47484;BMP280;54076;50.322;18.650;2023-03-01T00:55:33;99187.27;;;-6.58
47484;BMP280;54076;50.322;18.650;2023-03-01T01:00:34;99188.00;;;-6.51
47484;BMP280;54076;50.322;18.650;2023-03-01T01:05:35;99180.50;;;-6.50
47484;BMP280;54076;50.322;18.650;2023-03-01T01:10:37;99179.36;;;-6.45
47484;BMP280;54076;50.322;18.650;2023-03-01T01:15:38;99176.09;;;-6.57
47484;BMP280;54076;50.322;18.650;2023-03-01T01:20:39;99177.13;;;-6.55
47484;BMP280;54076;50.322;18.650;2023-03-01T01:25:40;99177.35;;;-6.56
47484;BMP280;54076;50.322;18.650;2023-03-01T01:30:42;99174.05;;;-6.69
47484;BMP280;54076;50.322;18.650;2023-03-01T01:35:45;99173.39;;;-6.72
47484;BMP280;54076;50.322;18.650;2023-03-01T01:40:47;99168.58;;;-6.61
47484;BMP280;54076;50.322;18.650;2023-03-01T01:45:50;99158.56;;;-6.60
47484;BMP280;54076;50.322;18.650;2023-03-01T01:51:00;99152.96;;;-6.53
47484;BMP280;54076;50.322;18.650;2023-03-01T01:56:02;99152.13;;;-6.53
47484;BMP280;54076;50.322;18.650;2023-03-01T02:01:04;99140.80;;;-6.65
47484;BMP280;54076;50.322;18.650;2023-03-01T02:11:20;99126.58;;;-6.64
47484;BMP280;54076;50.322;18.650;2023-03-01T02:16:22;99130.67;;;-6.56
47484;BMP280;54076;50.322;18.650;2023-03-01T02:21:45;99122.91;;;-6.66
47484;BMP280;54076;50.322;18.650;2023-03-01T02:26:52;99127.56;;;-6.77
47484;BMP280;54076;50.322;18.650;2023-03-01T02:31:58;99127.05;;;-6.74
47484;BMP280;54076;50.322;18.650;2023-03-01T02:37:07;99127.56;;;-6.80
47484;BMP280;54076;50.322;18.650;2023-03-01T02:42:17;99138.98;;;-6.73
47484;BMP280;54076;50.322;18.650;2023-03-01T02:47:19;99140.70;;;-6.72
47484;BMP280;54076;50.322;18.650;2023-03-01T02:53:13;99137.43;;;-6.77
47484;BMP280;54076;50.322;18.650;2023-03-01T02:58:16;99136.07;;;-6.66
47484;BMP280;54076;50.322;18.650;2023-03-01T03:03:19;99135.09;;;-6.65
47484;BMP280;54076;50.322;18.650;2023-03-01T03:08:21;99136.02;;;-6.67
47484;BMP280;54076;50.322;18.650;2023-03-01T03:13:24;99135.34;;;-6.71
47484;BMP280;54076;50.322;18.650;2023-03-01T03:18:29;99135.59;;;-6.92
47484;BMP280;54076;50.322;18.650;2023-03-01T03:23:30;99132.48;;;-6.92
47484;BMP280;54076;50.322;18.650;2023-03-01T03:28:33;99123.14;;;-6.84
47484;BMP280;54076;50.322;18.650;2023-03-01T03:33:35;99110.50;;;-7.01
47484;BMP280;54076;50.322;18.650;2023-03-01T03:38:36;99109.20;;;-7.03
47484;BMP280;54076;50.322;18.650;2023-03-01T03:43:40;99104.46;;;-7.12
47484;BMP280;54076;50.322;18.650;2023-03-01T03:48:45;99103.20;;;-7.24
47484;BMP280;54076;50.322;18.650;2023-03-01T03:53:46;99091.06;;;-7.37
47484;BMP280;54076;50.322;18.650;2023-03-01T03:58:47;99099.40;;;-7.66
47484;BMP280;54076;50.322;18.650;2023-03-01T04:03:48;99101.94;;;-7.69
47484;BMP280;54076;50.322;18.650;2023-03-01T04:08:49;99096.79;;;-7.53
47484;BMP280;54076;50.322;18.650;2023-03-01T04:13:54;99100.81;;;-7.55
47484;BMP280;54076;50.322;18.650;2023-03-01T04:18:56;99100.90;;;-7.45
47484;BMP280;54076;50.322;18.650;2023-03-01T04:23:57;99101.48;;;-7.51
47484;BMP280;54076;50.322;18.650;2023-03-01T04:28:58;99106.31;;;-7.48
47484;BMP280;54076;50.322;18.650;2023-03-01T04:34:00;99105.46;;;-7.65
47484;BMP280;54076;50.322;18.650;2023-03-01T04:39:01;99107.42;;;-7.83
47484;BMP280;54076;50.322;18.650;2023-03-01T04:44:13;99097.15;;;-7.81
47484;BMP280;54076;50.322;18.650;2023-03-01T04:49:14;99099.55;;;-7.80
47484;BMP280;54076;50.322;18.650;2023-03-01T04:54:16;99109.48;;;-7.79
47484;BMP280;54076;50.322;18.650;2023-03-01T04:59:17;99106.51;;;-8.09
47484;BMP280;54076;50.322;18.650;2023-03-01T05:04:19;99090.23;;;-7.94
47484;BMP280;54076;50.322;18.650;2023-03-01T05:09:20;99093.23;;;-8.02
47484;BMP280;54076;50.322;18.650;2023-03-01T05:14:21;99082.14;;;-8.04
47484;BMP280;54076;50.322;18.650;2023-03-01T05:19:22;99078.57;;;-7.95
47484;BMP280;54076;50.322;18.650;2023-03-01T05:24:24;99082.30;;;-7.83
47484;BMP280;54076;50.322;18.650;2023-03-01T05:29:27;99083.23;;;-7.87
47484;BMP280;54076;50.322;18.650;2023-03-01T05:34:32;99083.67;;;-7.73
47484;BMP280;54076;50.322;18.650;2023-03-01T05:39:34;99081.55;;;-7.69
47484;BMP280;54076;50.322;18.650;2023-03-01T05:44:35;99075.16;;;-7.70
47484;BMP280;54076;50.322;18.650;2023-03-01T05:49:36;99076.86;;;-7.66
47484;BMP280;54076;50.322;18.650;2023-03-01T05:54:37;99082.23;;;-7.57
47484;BMP280;54076;50.322;18.650;2023-03-01T05:59:39;99086.40;;;-7.47
47484;BMP280;54076;50.322;18.650;2023-03-01T06:04:40;99098.96;;;-7.41
47484;BMP280;54076;50.322;18.650;2023-03-01T06:09:42;99104.04;;;-7.29
47484;BMP280;54076;50.322;18.650;2023-03-01T06:14:43;99112.59;;;-7.19
47484;BMP280;54076;50.322;18.650;2023-03-01T06:19:46;99111.56;;;-7.09
47484;BMP280;54076;50.322;18.650;2023-03-01T06:24:48;99109.11;;;-7.12
47484;BMP280;54076;50.322;18.650;2023-03-01T06:29:49;99109.75;;;-6.99
47484;BMP280;54076;50.322;18.650;2023-03-01T06:34:50;99110.39;;;-6.67
47484;BMP280;54076;50.322;18.650;2023-03-01T06:39:51;99113.57;;;-6.60
47484;BMP280;54076;50.322;18.650;2023-03-01T06:44:52;99118.50;;;-6.58
47484;BMP280;54076;50.322;18.650;2023-03-01T06:49:53;99118.73;;;-6.48
47484;BMP280;54076;50.322;18.650;2023-03-01T06:54:55;99108.22;;;-6.47
47484;BMP280;54076;50.322;18.650;2023-03-01T06:59:56;99108.48;;;-6.11
47484;BMP280;54076;50.322;18.650;2023-03-01T07:04:57;99111.50;;;-6.12
47484;BMP280;54076;50.322;18.650;2023-03-01T07:09:58;99112.30;;;-6.27
47484;BMP280;54076;50.322;18.650;2023-03-01T07:14:59;99113.71;;;-6.03
47484;BMP280;54076;50.322;18.650;2023-03-01T07:20:00;99103.23;;;-5.61
47484;BMP280;54076;50.322;18.650;2023-03-01T07:25:02;99096.95;;;-5.52
47484;BMP280;54076;50.322;18.650;2023-03-01T07:30:03;99095.52;;;-5.36
47484;BMP280;54076;50.322;18.650;2023-03-01T07:35:05;99092.74;;;-5.19
47484;BMP280;54076;50.322;18.650;2023-03-01T07:40:10;99094.19;;;-4.90
47484;BMP280;54076;50.322;18.650;2023-03-01T07:45:12;99087.86;;;-4.83
47484;BMP280;54076;50.322;18.650;2023-03-01T07:50:14;99087.88;;;-4.64
47484;BMP280;54076;50.322;18.650;2023-03-01T07:55:16;99079.72;;;-4.50
47484;BMP280;54076;50.322;18.650;2023-03-01T08:00:18;99080.04;;;-4.35
47484;BMP280;54076;50.322;18.650;2023-03-01T08:05:19;99081.40;;;-4.09
47484;BMP280;54076;50.322;18.650;2023-03-01T08:10:22;99077.43;;;-4.06
47484;BMP280;54076;50.322;18.650;2023-03-01T08:15:24;99071.23;;;-3.68
47484;BMP280;54076;50.322;18.650;2023-03-01T08:20:25;99079.27;;;-3.59
47484;BMP280;54076;50.322;18.650;2023-03-01T08:25:26;99076.19;;;-3.38
47484;BMP280;54076;50.322;18.650;2023-03-01T08:30:27;99069.77;;;-3.01
47484;BMP280;54076;50.322;18.650;2023-03-01T08:35:28;99068.33;;;-2.81
47484;BMP280;54076;50.322;18.650;2023-03-01T08:40:29;99065.02;;;-2.69
47484;BMP280;54076;50.322;18.650;2023-03-01T08:45:31;99067.84;;;-2.51
47484;BMP280;54076;50.322;18.650;2023-03-01T08:50:32;99064.37;;;-2.31
47484;BMP280;54076;50.322;18.650;2023-03-01T08:55:33;99066.41;;;-2.15
47484;BMP280;54076;50.322;18.650;2023-03-01T09:00:34;99062.86;;;-2.16
47484;BMP280;54076;50.322;18.650;2023-03-01T09:05:35;99050.72;;;-2.13
47484;BMP280;54076;50.322;18.650;2023-03-01T09:10:38;99048.63;;;-2.03
47484;BMP280;54076;50.322;18.650;2023-03-01T09:15:40;99054.67;;;-1.80
47484;BMP280;54076;50.322;18.650;2023-03-01T09:20:41;99048.94;;;-1.76
47484;BMP280;54076;50.322;18.650;2023-03-01T09:25:42;99049.50;;;-1.48
47484;BMP280;54076;50.322;18.650;2023-03-01T09:30:43;99041.74;;;-1.57
47484;BMP280;54076;50.322;18.650;2023-03-01T09:35:44;99045.41;;;-1.28
47484;BMP280;54076;50.322;18.650;2023-03-01T09:40:47;99048.30;;;-1.11
47484;BMP280;54076;50.322;18.650;2023-03-01T09:45:49;99047.95;;;-0.68
47484;BMP280;54076;50.322;18.650;2023-03-01T09:50:52;99049.35;;;-0.27
47484;BMP280;54076;50.322;18.650;2023-03-01T09:56:17;99046.79;;;-0.51
47484;BMP280;54076;50.322;18.650;2023-03-01T10:06:33;99039.52;;;-0.38
47484;BMP280;54076;50.322;18.650;2023-03-01T10:11:42;99042.17;;;-0.17
47484;BMP280;54076;50.322;18.650;2023-03-01T10:16:57;99026.64;;;0.09
47484;BMP280;54076;50.322;18.650;2023-03-01T10:22:11;99027.70;;;0.12
47484;BMP280;54076;50.322;18.650;2023-03-01T10:27:25;99028.62;;;0.07
47484;BMP280;54076;50.322;18.650;2023-03-01T10:32:26;99025.49;;;0.19
47484;BMP280;54076;50.322;18.650;2023-03-01T10:37:27;99022.17;;;0.53
47484;BMP280;54076;50.322;18.650;2023-03-01T10:42:51;99018.57;;;0.69
47484;BMP280;54076;50.322;18.650;2023-03-01T10:48:21;99015.84;;;0.75
47484;BMP280;54076;50.322;18.650;2023-03-01T10:53:35;99022.41;;;1.47
47484;BMP280;54076;50.322;18.650;2023-03-01T10:59:04;99020.34;;;1.97
47484;BMP280;54076;50.322;18.650;2023-03-01T11:09:23;99019.56;;;3.61
47484;BMP280;54076;50.322;18.650;2023-03-01T11:14:35;99015.17;;;4.45
47484;BMP280;54076;50.322;18.650;2023-03-01T11:19:36;99020.98;;;5.61
47484;BMP280;54076;50.322;18.650;2023-03-01T11:24:46;99007.08;;;5.45
47484;BMP280;54076;50.322;18.650;2023-03-01T11:35:21;99002.48;;;6.49
47484;BMP280;54076;50.322;18.650;2023-03-01T11:40:44;98997.92;;;5.90
47484;BMP280;54076;50.322;18.650;2023-03-01T11:50:57;99005.38;;;6.55
47484;BMP280;54076;50.322;18.650;2023-03-01T11:56:25;99004.10;;;7.95
47484;BMP280;54076;50.322;18.650;2023-03-01T12:07:24;98981.29;;;7.38
47484;BMP280;54076;50.322;18.650;2023-03-01T12:18:15;98971.90;;;9.05
47484;BMP280;54076;50.322;18.650;2023-03-01T12:29:46;98958.79;;;7.83
47484;BMP280;54076;50.322;18.650;2023-03-01T12:40:40;98956.65;;;9.57
47484;BMP280;54076;50.322;18.650;2023-03-01T12:46:27;98947.27;;;9.19
47484;BMP280;54076;50.322;18.650;2023-03-01T12:51:26;98936.08;;;8.96
47484;BMP280;54076;50.322;18.650;2023-03-01T12:56:35;98922.75;;;8.01
47484;BMP280;54076;50.322;18.650;2023-03-01T13:07:27;98908.04;;;8.95
47484;BMP280;54076;50.322;18.650;2023-03-01T13:13:31;98891.39;;;7.75
47484;BMP280;54076;50.322;18.650;2023-03-01T13:33:47;98878.32;;;8.00
47484;BMP280;54076;50.322;18.650;2023-03-01T13:38:57;98876.75;;;6.48
47484;BMP280;54076;50.322;18.650;2023-03-01T13:43:59;98873.77;;;6.52
47484;BMP280;54076;50.322;18.650;2023-03-01T13:49:00;98864.16;;;6.02
47484;BMP280;54076;50.322;18.650;2023-03-01T13:54:01;98854.40;;;5.30
47484;BMP280;54076;50.322;18.650;2023-03-01T13:59:12;98851.52;;;6.68
47484;BMP280;54076;50.322;18.650;2023-03-01T14:04:29;98841.13;;;5.78
47484;BMP280;54076;50.322;18.650;2023-03-01T14:09:32;98837.73;;;5.38
47484;BMP280;54076;50.322;18.650;2023-03-01T14:15:13;98832.71;;;5.19
47484;BMP280;54076;50.322;18.650;2023-03-01T14:20:26;98828.20;;;4.31
47484;BMP280;54076;50.322;18.650;2023-03-01T14:25:33;98832.52;;;4.59
47484;BMP280;54076;50.322;18.650;2023-03-01T14:30:44;98821.34;;;4.32
47484;BMP280;54076;50.322;18.650;2023-03-01T14:35:58;98806.33;;;3.70
47484;BMP280;54076;50.322;18.650;2023-03-01T14:41:08;98808.19;;;3.61
47484;BMP280;54076;50.322;18.650;2023-03-01T14:46:41;98796.54;;;3.29
47484;BMP280;54076;50.322;18.650;2023-03-01T14:52:00;98793.83;;;3.11
47484;BMP280;54076;50.322;18.650;2023-03-01T14:57:02;98792.34;;;3.20
47484;BMP280;54076;50.322;18.650;2023-03-01T15:02:04;98788.86;;;3.33
47484;BMP280;54076;50.322;18.650;2023-03-01T15:07:05;98786.66;;;3.16
47484;BMP280;54076;50.322;18.650;2023-03-01T15:17:38;98792.34;;;3.14
47484;BMP280;54076;50.322;18.650;2023-03-01T15:22:46;98789.27;;;3.11
47484;BMP280;54076;50.322;18.650;2023-03-01T15:27:52;98788.73;;;2.98
47484;BMP280;54076;50.322;18.650;2023-03-01T15:43:45;98781.88;;;2.57
47484;BMP280;54076;50.322;18.650;2023-03-01T15:48:54;98785.46;;;2.26
47484;BMP280;54076;50.322;18.650;2023-03-01T15:54:01;98791.23;;;2.21
47484;BMP280;54076;50.322;18.650;2023-03-01T15:59:03;98789.20;;;2.23
47484;BMP280;54076;50.322;18.650;2023-03-01T16:04:04;98792.95;;;2.18
47484;BMP280;54076;50.322;18.650;2023-03-01T16:09:05;98793.83;;;2.08
47484;BMP280;54076;50.322;18.650;2023-03-01T16:14:09;98790.67;;;1.87
47484;BMP280;54076;50.322;18.650;2023-03-01T16:19:10;98789.89;;;1.83
47484;BMP280;54076;50.322;18.650;2023-03-01T16:24:13;98787.25;;;1.66
47484;BMP280;54076;50.322;18.650;2023-03-01T16:29:15;98793.20;;;1.37
47484;BMP280;54076;50.322;18.650;2023-03-01T16:34:17;98800.55;;;1.11
47484;BMP280;54076;50.322;18.650;2023-03-01T16:39:18;98800.20;;;1.06
47484;BMP280;54076;50.322;18.650;2023-03-01T16:44:19;98804.00;;;0.94
47484;BMP280;54076;50.322;18.650;2023-03-01T16:49:20;98807.11;;;0.63
47484;BMP280;54076;50.322;18.650;2023-03-01T16:54:21;98808.47;;;0.29
47484;BMP280;54076;50.322;18.650;2023-03-01T16:59:22;98809.07;;;0.32
47484;BMP280;54076;50.322;18.650;2023-03-01T17:04:24;98808.89;;;0.36
47484;BMP280;54076;50.322;18.650;2023-03-01T17:09:25;98807.02;;;0.34
47484;BMP280;54076;50.322;18.650;2023-03-01T17:14:26;98811.74;;;0.25
47484;BMP280;54076;50.322;18.650;2023-03-01T17:19:27;98814.56;;;0.11
47484;BMP280;54076;50.322;18.650;2023-03-01T17:24:34;98819.20;;;-0.57
47484;BMP280;54076;50.322;18.650;2023-03-01T17:29:35;98818.04;;;-0.82
47484;BMP280;54076;50.322;18.650;2023-03-01T17:34:36;98821.17;;;-1.01
47484;BMP280;54076;50.322;18.650;2023-03-01T17:39:37;98821.64;;;-1.09
47484;BMP280;54076;50.322;18.650;2023-03-01T17:44:38;98823.05;;;-1.13
47484;BMP280;54076;50.322;18.650;2023-03-01T17:49:39;98822.85;;;-1.29
47484;BMP280;54076;50.322;18.650;2023-03-01T17:54:41;98819.94;;;-1.43
47484;BMP280;54076;50.322;18.650;2023-03-01T17:59:42;98818.63;;;-1.50
47484;BMP280;54076;50.322;18.650;2023-03-01T18:04:43;98821.09;;;-1.64
47484;BMP280;54076;50.322;18.650;2023-03-01T18:09:44;98811.08;;;-1.82
47484;BMP280;54076;50.322;18.650;2023-03-01T18:14:45;98813.17;;;-1.93
47484;BMP280;54076;50.322;18.650;2023-03-01T18:19:48;98811.05;;;-2.00
47484;BMP280;54076;50.322;18.650;2023-03-01T18:24:49;98819.21;;;-2.10
47484;BMP280;54076;50.322;18.650;2023-03-01T18:29:51;98823.52;;;-2.19
47484;BMP280;54076;50.322;18.650;2023-03-01T18:34:53;98825.67;;;-2.24
47484;BMP280;54076;50.322;18.650;2023-03-01T18:39:54;98830.52;;;-2.21
47484;BMP280;54076;50.322;18.650;2023-03-01T18:44:55;98827.80;;;-2.59
47484;BMP280;54076;50.322;18.650;2023-03-01T18:49:56;98821.36;;;-2.81
47484;BMP280;54076;50.322;18.650;2023-03-01T18:54:57;98814.41;;;-2.77
47484;BMP280;54076;50.322;18.650;2023-03-01T18:59:59;98812.92;;;-2.90
47484;BMP280;54076;50.322;18.650;2023-03-01T19:05:00;98806.40;;;-2.74
47484;BMP280;54076;50.322;18.650;2023-03-01T19:10:01;98804.74;;;-2.31
47484;BMP280;54076;50.322;18.650;2023-03-01T19:15:03;98802.16;;;-2.22
47484;BMP280;54076;50.322;18.650;2023-03-01T19:20:06;98807.77;;;-2.17
47484;BMP280;54076;50.322;18.650;2023-03-01T19:25:08;98810.99;;;-2.07
47484;BMP280;54076;50.322;18.650;2023-03-01T19:30:10;98811.59;;;-2.17
47484;BMP280;54076;50.322;18.650;2023-03-01T19:35:11;98814.36;;;-2.10
47484;BMP280;54076;50.322;18.650;2023-03-01T19:40:13;98811.02;;;-2.17
47484;BMP280;54076;50.322;18.650;2023-03-01T19:45:14;98812.65;;;-2.10
47484;BMP280;54076;50.322;18.650;2023-03-01T19:50:15;98805.57;;;-2.23
47484;BMP280;54076;50.322;18.650;2023-03-01T19:55:17;98806.98;;;-2.76
47484;BMP280;54076;50.322;18.650;2023-03-01T20:00:19;98805.93;;;-3.25
47484;BMP280;54076;50.322;18.650;2023-03-01T20:05:20;98808.25;;;-3.35
47484;BMP280;54076;50.322;18.650;2023-03-01T20:10:22;98809.41;;;-3.27
47484;BMP280;54076;50.322;18.650;2023-03-01T20:15:26;98812.10;;;-3.27
47484;BMP280;54076;50.322;18.650;2023-03-01T20:20:27;98818.63;;;-3.43
47484;BMP280;54076;50.322;18.650;2023-03-01T20:25:28;98823.55;;;-3.45
47484;BMP280;54076;50.322;18.650;2023-03-01T20:30:29;98824.64;;;-3.42
47484;BMP280;54076;50.322;18.650;2023-03-01T20:35:31;98827.63;;;-3.56
47484;BMP280;54076;50.322;18.650;2023-03-01T20:40:36;98825.11;;;-3.78
47484;BMP280;54076;50.322;18.650;2023-03-01T20:45:37;98825.70;;;-3.92
47484;BMP280;54076;50.322;18.650;2023-03-01T20:50:40;98824.31;;;-4.14
47484;BMP280;54076;50.322;18.650;2023-03-01T20:55:41;98816.98;;;-4.33
47484;BMP280;54076;50.322;18.650;2023-03-01T21:00:42;98813.05;;;-4.33
47484;BMP280;54076;50.322;18.650;2023-03-01T21:05:43;98811.38;;;-4.57
47484;BMP280;54076;50.322;18.650;2023-03-01T21:10:53;98807.40;;;-4.80
47484;BMP280;54076;50.322;18.650;2023-03-01T21:16:07;98813.34;;;-4.89
47484;BMP280;54076;50.322;18.650;2023-03-01T21:21:16;98802.86;;;-5.10
47484;BMP280;54076;50.322;18.650;2023-03-01T21:26:24;98806.36;;;-5.03
47484;BMP280;54076;50.322;18.650;2023-03-01T21:31:33;98811.69;;;-4.88
47484;BMP280;54076;50.322;18.650;2023-03-01T21:36:34;98807.77;;;-4.86
47484;BMP280;54076;50.322;18.650;2023-03-01T21:41:37;98799.36;;;-5.00
47484;BMP280;54076;50.322;18.650;2023-03-01T21:46:38;98802.30;;;-4.97
47484;BMP280;54076;50.322;18.650;2023-03-01T21:51:40;98798.08;;;-4.71
47484;BMP280;54076;50.322;18.650;2023-03-01T21:56:42;98800.17;;;-4.78
47484;BMP280;54076;50.322;18.650;2023-03-01T22:01:45;98803.13;;;-5.07
47484;BMP280;54076;50.322;18.650;2023-03-01T22:06:46;98814.90;;;-4.94
47484;BMP280;54076;50.322;18.650;2023-03-01T22:11:51;98809.69;;;-4.77
47484;BMP280;54076;50.322;18.650;2023-03-01T22:16:54;98808.87;;;-4.88
47484;BMP280;54076;50.322;18.650;2023-03-01T22:21:55;98808.80;;;-4.96
47484;BMP280;54076;50.322;18.650;2023-03-01T22:26:56;98805.44;;;-5.01
47484;BMP280;54076;50.322;18.650;2023-03-01T22:31:58;98805.02;;;-4.84
47484;BMP280;54076;50.322;18.650;2023-03-01T22:36:59;98799.98;;;-4.79
47484;BMP280;54076;50.322;18.650;2023-03-01T22:42:00;98806.66;;;-4.69
47484;BMP280;54076;50.322;18.650;2023-03-01T22:47:02;98804.05;;;-5.18
47484;BMP280;54076;50.322;18.650;2023-03-01T22:52:04;98798.95;;;-5.53
47484;BMP280;54076;50.322;18.650;2023-03-01T22:57:05;98805.62;;;-5.56
47484;BMP280;54076;50.322;18.650;2023-03-01T23:02:06;98799.64;;;-5.48
47484;BMP280;54076;50.322;18.650;2023-03-01T23:07:07;98788.23;;;-5.42
47484;BMP280;54076;50.322;18.650;2023-03-01T23:12:08;98790.18;;;-5.44
47484;BMP280;54076;50.322;18.650;2023-03-01T23:17:10;98793.71;;;-5.80
47484;BMP280;54076;50.322;18.650;2023-03-01T23:22:12;98799.34;;;-6.01
47484;BMP280;54076;50.322;18.650;2023-03-01T23:27:14;98799.58;;;-6.02
47484;BMP280;54076;50.322;18.650;2023-03-01T23:32:17;98794.41;;;-5.99
47484;BMP280;54076;50.322;18.650;2023-03-01T23:37:19;98798.23;;;-6.14
47484;BMP280;54076;50.322;18.650;2023-03-01T23:42:20;98796.11;;;-6.20
47484;BMP280;54076;50.322;18.650;2023-03-01T23:47:21;98797.15;;;-6.13
47484;BMP280;54076;50.322;18.650;2023-03-01T23:52:22;98798.20;;;-6.09
47484;BMP280;54076;50.322;18.650;2023-03-01T23:57:24;98796.52;;;-5.75
